In Rescue
 
Open Full Screen Window  High Contrast Mode
Wind Gusting 25 knots
19
October 25, 2021 4:47 PM EDT
Weather Information
Wind Direction
  030 °
Wind Speed
  19 kt (22 mph)
Wind Gust
  25 kt (29 mph)
Altimeter
29.72 in
Visibility
10 SM
Temperature
10° C
50° F
Dewpoint
08° C
46° F
Humidity
88%
1hr Rain Fall
00.03 in.
24hr Rain Fall
01.52 in.
Sky Condition
Overcast @ 1,400 ft
MVFR

METAR KONZ 252047Z AUTO 03019G25KT 10SM OVC014 10/08 A2972 RMK AO2 T00990081 P0003

FAA Disclaimer: The data displayed is for advisory purposes only and is not to be used for flight planning or operations.